createdAt,value
2023-05-28T00:02:45.219Z,12.70
2023-05-28T00:12:48.365Z,12.23
2023-05-28T00:22:52.801Z,11.82
2023-05-28T00:32:56.173Z,13.25
2023-05-28T00:43:01.472Z,12.98
2023-05-28T00:53:05.491Z,12.50
2023-05-28T01:03:10.608Z,12.90
2023-05-28T01:13:14.233Z,14.52
2023-05-28T01:23:21.609Z,13.25
2023-05-28T01:33:26.456Z,14.43
2023-05-28T01:43:30.859Z,15.40
2023-05-28T01:53:35.585Z,16.40
2023-05-28T02:03:38.711Z,15.15
2023-05-28T02:13:45.167Z,15.27
2023-05-28T02:23:50.403Z,14.90
2023-05-28T02:33:55.614Z,16.30
2023-05-28T02:43:58.542Z,14.77
2023-05-28T02:54:03.589Z,14.05
2023-05-28T03:04:06.731Z,13.30
2023-05-28T03:14:11.765Z,12.95
2023-05-28T03:24:14.977Z,13.57
2023-05-28T03:34:22.592Z,12.57
2023-05-28T03:44:25.601Z,13.67
2023-05-28T03:54:30.904Z,13.40
2023-05-28T04:04:34.097Z,13.57
2023-05-28T04:14:38.686Z,12.73
2023-05-28T04:24:43.403Z,13.25
2023-05-28T04:34:48.290Z,12.30
2023-05-28T04:44:54.762Z,14.18
2023-05-28T04:55:01.656Z,13.93
2023-05-28T05:05:05.233Z,13.43
2023-05-28T05:15:11.029Z,12.90
2023-05-28T05:25:14.114Z,12.88
2023-05-28T05:35:21.678Z,13.32
2023-05-28T05:45:52.589Z,13.13
2023-05-28T05:55:57.610Z,13.10
2023-05-28T06:06:01.273Z,12.23
2023-05-28T06:16:43.754Z,12.35
2023-05-28T06:36:52.425Z,11.75
2023-05-28T06:46:56.157Z,12.32
2023-05-28T06:57:01.069Z,11.07
2023-05-28T07:07:36.839Z,11.35
2023-05-28T07:17:41.440Z,9.97
2023-05-28T07:27:44.554Z,9.27
2023-05-28T07:37:51.459Z,8.25
2023-05-28T07:47:54.631Z,8.48
2023-05-28T07:58:16.949Z,8.63
2023-05-28T08:08:20.054Z,10.45
2023-05-28T08:18:25.945Z,11.30
2023-05-28T08:28:30.279Z,10.88
2023-05-28T08:38:36.834Z,12.18
2023-05-28T08:48:43.370Z,11.27
2023-05-28T08:58:49.684Z,11.02
2023-05-28T09:08:55.112Z,9.80
2023-05-28T09:19:12.563Z,5.78
2023-05-28T09:29:15.974Z,6.72
2023-05-28T09:39:20.398Z,6.70
2023-05-28T09:49:23.371Z,6.18
2023-05-28T09:59:30.696Z,6.23
2023-05-28T10:09:35.028Z,5.60
2023-05-28T10:19:39.569Z,4.97
2023-05-28T10:29:43.791Z,5.63
2023-05-28T10:39:48.229Z,4.88
2023-05-28T11:00:14.585Z,4.78
2023-05-28T11:10:18.360Z,5.30
2023-05-28T11:20:25.724Z,5.07
2023-05-28T11:30:28.892Z,4.93
2023-05-28T11:40:37.040Z,4.97
2023-05-28T11:50:40.286Z,5.60
2023-05-28T12:00:45.293Z,4.93
2023-05-28T12:10:48.463Z,4.78
2023-05-28T12:20:53.478Z,5.50
2023-05-28T12:30:57.044Z,5.38
2023-05-28T12:41:01.737Z,5.18
2023-05-28T12:51:05.524Z,5.50
2023-05-28T13:01:09.901Z,5.35
2023-05-28T13:11:13.058Z,5.20
2023-05-28T13:31:20.907Z,4.50
2023-05-28T13:41:26.858Z,5.43
2023-05-28T13:51:29.832Z,5.13
2023-05-28T14:01:34.283Z,4.70
2023-05-28T14:12:08.483Z,4.47
2023-05-28T14:22:01.686Z,4.30
2023-05-28T14:32:07.049Z,4.22
2023-05-28T14:42:11.782Z,4.45
2023-05-28T14:52:25.992Z,4.10
2023-05-28T15:02:30.809Z,4.78
2023-05-28T15:12:33.821Z,5.25
2023-05-28T15:22:38.228Z,5.28
2023-05-28T15:32:41.893Z,5.90
2023-05-28T15:42:47.337Z,6.00
2023-05-28T15:52:51.363Z,5.88
2023-05-28T16:02:59.124Z,6.13
2023-05-28T16:13:07.257Z,5.38
2023-05-28T16:23:12.425Z,6.18
2023-05-28T16:33:16.091Z,5.88
2023-05-28T16:43:21.349Z,6.63
2023-05-28T16:53:25.818Z,6.15
2023-05-28T17:03:30.383Z,7.20
2023-05-28T17:13:33.446Z,7.20
2023-05-28T17:23:37.849Z,6.73
2023-05-28T17:33:40.884Z,7.40
2023-05-28T17:43:45.953Z,6.83
2023-05-28T17:53:49.103Z,6.60
2023-05-28T18:03:53.577Z,6.97
2023-05-28T18:13:56.585Z,7.35
2023-05-28T18:24:07.973Z,6.63
2023-05-28T18:34:11.027Z,5.75
2023-05-28T18:44:15.667Z,7.07
2023-05-28T18:54:18.782Z,6.40
2023-05-28T19:04:23.344Z,5.73
2023-05-28T19:14:26.460Z,5.18
2023-05-28T19:24:33.058Z,5.20
2023-05-28T19:34:39.273Z,5.30
2023-05-28T19:44:44.589Z,4.57
2023-05-28T19:54:49.114Z,5.22
2023-05-28T20:04:54.200Z,4.80
2023-05-28T20:14:57.356Z,4.97
2023-05-28T20:25:02.020Z,5.35
2023-05-28T20:35:05.751Z,5.78
2023-05-28T20:45:15.039Z,6.33
2023-05-28T20:55:18.872Z,6.32
2023-05-28T21:05:23.733Z,5.60
2023-05-28T21:15:26.826Z,5.43
2023-05-28T21:25:31.359Z,6.63
2023-05-28T21:35:34.378Z,6.22
2023-05-28T21:45:38.706Z,5.68
2023-05-28T21:55:42.120Z,6.13
2023-05-28T22:05:46.536Z,6.22
2023-05-28T22:15:49.631Z,6.53
2023-05-28T22:25:54.299Z,7.43
2023-05-28T22:46:01.714Z,7.93
2023-05-28T22:56:04.818Z,7.65
2023-05-28T23:06:09.803Z,8.27
2023-05-28T23:16:14.288Z,9.73
2023-05-28T23:26:18.871Z,10.20
2023-05-28T23:36:22.259Z,10.13
2023-05-28T23:46:26.685Z,9.95
2023-05-28T23:56:29.736Z,9.20
